Time;durP1;ratioP1;P1;durP2;ratioP2;P2;SDS_P1;SDS_P2;PMS_P1;PMS_P2;Temp;Humidity;BMP_temperature;BMP_pressure;BME280_temperature;BME280_humidity;BME280_pressure;Samples;Min_cycle;Max_cycle;Signal;HPM_P1;HPM_P2
2022/02/06 00:01:40;;;;;;;13.80;3.95;;;7.60;99.90;;;;;;5026245;28;20465;-43
2022/02/06 00:04:05;;;;;;;10.40;4.18;;;7.60;99.90;;;;;;5027929;28;20045;-44
2022/02/06 00:06:33;;;;;;;10.50;4.32;;;7.70;99.90;;;;;;5029789;28;20552;-43
2022/02/06 00:08:59;;;;;;;15.10;4.50;;;7.70;99.90;;;;;;5045633;28;20502;-42
2022/02/06 00:11:24;;;;;;;14.13;5.22;;;7.70;99.90;;;;;;5037913;28;20034;-44
2022/02/06 00:13:49;;;;;;;9.10;3.83;;;7.70;99.90;;;;;;5042569;28;20029;-43
2022/02/06 00:16:15;;;;;;;8.02;4.88;;;7.70;99.90;;;;;;5040360;28;20100;-43
2022/02/06 00:18:42;;;;;;;11.50;3.80;;;7.70;99.90;;;;;;5040767;28;20099;-44
2022/02/06 00:21:12;;;;;;;10.82;4.20;;;7.70;99.90;;;;;;5040096;28;20060;-43
2022/02/06 00:23:38;;;;;;;10.68;4.22;;;7.80;99.90;;;;;;5038156;28;20071;-43
2022/02/06 00:26:25;;;;;;;11.93;4.57;;;7.80;99.90;;;;;;5045185;28;20040;-43
2022/02/06 00:39:41;;;;;;;9.50;4.43;;;7.80;99.90;;;;;;5043242;28;20553;-44
2022/02/06 00:42:16;;;;;;;8.05;4.20;;;7.80;99.90;;;;;;5040353;28;20030;-43
2022/02/06 00:44:42;;;;;;;11.48;4.70;;;7.80;99.90;;;;;;5041492;28;20507;-43
2022/02/06 00:47:08;;;;;;;11.60;4.82;;;7.80;99.90;;;;;;5040717;28;20525;-44
2022/02/06 00:49:34;;;;;;;8.65;4.57;;;7.80;99.90;;;;;;5036694;28;20068;-43
2022/02/06 00:52:15;;;;;;;10.48;4.55;;;7.80;99.90;;;;;;5043899;28;20104;-43
2022/02/06 00:54:41;;;;;;;12.93;4.65;;;7.80;99.90;;;;;;5037330;28;20028;-44
2022/02/06 00:57:06;;;;;;;10.38;4.53;;;7.80;99.90;;;;;;5044739;28;20456;-43
2022/02/06 00:59:32;;;;;;;9.65;4.82;;;7.80;99.90;;;;;;5034261;28;20506;-44
2022/02/06 01:02:01;;;;;;;12.73;5.28;;;7.80;99.90;;;;;;5042482;28;20043;-44
2022/02/06 01:04:28;;;;;;;11.32;5.35;;;7.80;99.90;;;;;;5026000;28;20033;-44
2022/02/06 01:06:53;;;;;;;9.75;5.45;;;7.80;99.90;;;;;;5026680;28;20033;-44
2022/02/06 01:09:19;;;;;;;11.15;5.00;;;7.80;99.90;;;;;;5024872;28;20029;-44
2022/02/06 01:11:45;;;;;;;12.23;5.10;;;7.70;99.90;;;;;;5025922;28;20022;-43
2022/02/06 01:16:57;;;;;;;8.27;4.50;;;7.80;99.90;;;;;;5025832;28;20030;-42
2022/02/06 01:19:27;;;;;;;12.20;4.70;;;7.70;99.90;;;;;;5025386;28;20022;-43
2022/02/06 01:22:00;;;;;;;12.48;4.55;;;7.70;99.90;;;;;;5026435;28;20020;-43
2022/02/06 01:24:43;;;;;;;7.38;4.40;;;7.70;99.90;;;;;;5024710;28;20038;-43
2022/02/06 01:27:20;;;;;;;11.55;4.40;;;7.70;99.90;;;;;;5026395;28;20037;-43
2022/02/06 01:32:15;;;;;;;11.68;4.88;;;7.80;99.90;;;;;;5025665;28;20038;-43
2022/02/06 01:34:55;;;;;;;10.02;4.55;;;7.70;99.90;;;;;;5026064;28;20029;-43
2022/02/06 01:37:28;;;;;;;9.70;4.30;;;7.70;99.90;;;;;;5025176;28;20475;-43
2022/02/06 01:40:12;;;;;;;;;;;7.70;99.90;;;;;;5026612;28;20040;-43
2022/02/06 01:42:56;;;;;;;11.07;4.97;;;7.70;99.90;;;;;;5026330;28;19952;-43
2022/02/06 01:45:37;;;;;;;12.38;4.57;;;7.70;99.90;;;;;;5024598;28;20049;-44
2022/02/06 02:04:39;;;;;;;6.68;4.20;;;7.80;99.90;;;;;;5029279;28;20095;-43
2022/02/06 02:15:08;;;;;;;8.43;4.05;;;7.80;99.90;;;;;;5029306;28;20489;-43
2022/02/06 02:20:37;;;;;;;8.05;4.22;;;7.80;99.90;;;;;;5028499;28;20038;-44
2022/02/06 02:26:25;;;;;;;7.93;3.83;;;7.90;99.90;;;;;;4978752;28;20441;-43
2022/02/06 02:31:23;;;;;;;6.43;3.30;;;7.90;99.90;;;;;;5028837;28;20443;-44
2022/02/06 02:47:19;;;;;;;11.45;3.67;;;7.90;99.90;;;;;;5027841;28;20116;-43
2022/02/06 02:49:52;;;;;;;8.10;4.28;;;7.90;99.90;;;;;;5028724;28;20033;-43
2022/02/06 02:55:21;;;;;;;7.65;3.95;;;7.90;99.90;;;;;;5028539;28;20707;-42
2022/02/06 02:58:18;;;;;;;10.80;4.25;;;7.90;99.90;;;;;;5028463;28;20044;-44
2022/02/06 03:01:07;;;;;;;9.10;4.03;;;7.90;99.90;;;;;;5029162;28;20041;-43
2022/02/06 03:03:38;;;;;;;7.47;3.92;;;7.90;99.90;;;;;;5026317;28;20045;-43
2022/02/06 03:06:06;;;;;;;5.57;3.50;;;7.90;99.90;;;;;;5028603;28;20154;-43
2022/02/06 03:08:34;;;;;;;7.90;4.10;;;7.90;99.90;;;;;;5027558;28;20017;-44
2022/02/06 03:11:03;;;;;;;9.18;4.43;;;7.90;99.90;;;;;;5028125;28;20461;-44
2022/02/06 03:13:38;;;;;;;10.27;4.18;;;7.90;99.90;;;;;;5026764;28;20026;-44
2022/02/06 03:16:18;;;;;;;10.98;4.60;;;7.90;99.90;;;;;;5027764;28;20938;-42
2022/02/06 03:18:48;;;;;;;7.43;3.85;;;7.90;99.90;;;;;;5024816;28;20551;-43
2022/02/06 03:21:19;;;;;;;9.00;3.95;;;7.90;99.90;;;;;;5027810;28;20045;-43
2022/02/06 03:23:50;;;;;;;9.88;4.25;;;7.90;99.90;;;;;;5026571;28;20051;-43
2022/02/06 03:26:19;;;;;;;7.93;4.00;;;7.90;99.90;;;;;;5027500;28;20037;-43
2022/02/06 03:28:45;;;;;;;8.32;4.07;;;7.90;99.90;;;;;;5027881;28;20021;-44
2022/02/06 03:31:11;;;;;;;8.27;3.72;;;7.90;99.90;;;;;;5027387;28;20033;-43
2022/02/06 03:33:37;;;;;;;6.88;3.88;;;7.90;99.90;;;;;;5028466;28;20079;-44
2022/02/06 03:36:03;;;;;;;7.80;4.18;;;7.90;99.90;;;;;;5028428;28;20447;-44
2022/02/06 03:38:29;;;;;;;6.68;3.65;;;7.90;99.90;;;;;;5026374;28;20141;-44
2022/02/06 03:41:00;;;;;;;7.88;3.65;;;7.90;99.90;;;;;;5028164;28;20579;-43
2022/02/06 03:43:35;;;;;;;9.52;3.67;;;7.90;99.90;;;;;;5027150;28;20103;-43
2022/02/06 03:48:49;;;;;;;7.28;3.38;;;7.80;99.90;;;;;;5027426;28;20115;-43
2022/02/06 03:51:28;;;;;;;6.22;3.40;;;7.90;99.90;;;;;;5026704;28;20068;-43
2022/02/06 03:53:54;;;;;;;8.88;3.42;;;7.90;99.90;;;;;;5027608;28;20667;-43
2022/02/06 03:56:21;;;;;;;6.03;3.20;;;7.90;99.90;;;;;;5027103;28;20534;-43
2022/02/06 03:58:49;;;;;;;9.05;3.22;;;7.90;99.90;;;;;;5026800;28;20021;-43
2022/02/06 04:01:15;;;;;;;5.93;3.20;;;7.90;99.90;;;;;;5027240;28;20022;-45
2022/02/06 04:03:41;;;;;;;7.43;3.50;;;7.90;99.90;;;;;;5026607;28;20091;-42
2022/02/06 04:06:07;;;;;;;8.68;3.60;;;7.90;99.90;;;;;;5026027;28;20132;-44
2022/02/06 04:08:35;;;;;;;7.72;3.35;;;7.80;99.90;;;;;;5027023;28;20528;-44
2022/02/06 04:11:05;;;;;;;6.80;3.40;;;7.90;99.90;;;;;;5027388;28;20065;-43
2022/02/06 04:13:33;;;;;;;5.07;3.20;;;7.90;99.90;;;;;;5026506;28;20022;-44
2022/02/06 04:16:02;;;;;;;6.85;3.38;;;7.90;99.90;;;;;;5027082;28;20452;-43
2022/02/06 04:20:53;;;;;;;4.85;3.15;;;7.90;99.90;;;;;;5026679;28;20084;-44
2022/02/06 04:23:19;;;;;;;5.60;3.40;;;7.90;99.90;;;;;;5026285;28;20030;-44
2022/02/06 04:25:45;;;;;;;6.05;3.42;;;7.90;99.90;;;;;;5026044;28;20468;-43
2022/02/06 04:28:10;;;;;;;6.60;3.60;;;7.90;99.90;;;;;;5026435;28;20120;-43
2022/02/06 04:30:36;;;;;;;6.22;3.40;;;7.90;99.90;;;;;;5026303;28;20026;-43
2022/02/06 04:33:05;;;;;;;7.63;3.47;;;7.90;99.90;;;;;;5026586;28;20025;-43
2022/02/06 04:35:34;;;;;;;4.47;3.30;;;7.90;99.90;;;;;;5026069;28;20536;-43
2022/02/06 04:43:44;;;;;;;7.28;3.67;;;7.90;99.90;;;;;;5026458;28;20045;-43
2022/02/06 05:19:07;;;;;;;6.80;3.97;;;8.10;99.90;;;;;;5026260;28;20492;-43
2022/02/06 05:26:57;;;;;;;10.35;4.13;;;8.20;99.90;;;;;;5017486;28;20443;-43
2022/02/06 05:29:36;;;;;;;8.07;3.63;;;8.20;99.90;;;;;;5024945;28;20025;-43
2022/02/06 05:32:17;;;;;;;7.55;3.45;;;8.20;99.90;;;;;;5025874;28;20471;-44
2022/02/06 05:34:43;;;;;;;5.43;3.22;;;8.30;99.90;;;;;;5025948;28;20036;-43
2022/02/06 05:37:08;;;;;;;7.18;3.58;;;8.30;99.90;;;;;;5027864;28;20037;-43
2022/02/06 05:39:34;;;;;;;9.90;3.58;;;8.30;99.90;;;;;;5030135;28;20025;-43
2022/02/06 05:41:59;;;;;;;8.55;3.25;;;8.40;99.90;;;;;;5029632;28;20026;-44
2022/02/06 05:44:25;;;;;;;11.35;3.63;;;8.40;99.90;;;;;;5029006;28;20112;-44
2022/02/06 05:46:50;;;;;;;13.52;3.55;;;8.40;99.90;;;;;;5030235;28;20103;-43
2022/02/06 05:49:16;;;;;;;9.20;3.42;;;8.40;99.90;;;;;;5029673;28;20033;-43
2022/02/06 05:51:43;;;;;;;8.18;3.65;;;8.40;99.90;;;;;;5029476;28;20028;-42
2022/02/06 05:54:10;;;;;;;8.75;3.50;;;8.40;99.90;;;;;;5029284;28;20476;-44
2022/02/06 05:56:36;;;;;;;9.40;4.10;;;8.50;99.90;;;;;;5029604;28;20112;-44
2022/02/06 05:59:03;;;;;;;7.95;4.07;;;8.50;99.90;;;;;;5028814;28;20096;-44
2022/02/06 06:01:30;;;;;;;11.30;4.30;;;8.50;99.90;;;;;;5029570;28;20029;-43
2022/02/06 06:03:58;;;;;;;8.23;3.80;;;8.50;99.90;;;;;;5029051;28;20053;-43
2022/02/06 06:06:25;;;;;;;10.95;3.90;;;8.50;99.90;;;;;;5028534;28;20049;-43
2022/02/06 06:08:50;;;;;;;9.57;3.85;;;8.50;99.90;;;;;;5029706;28;20032;-44
2022/02/06 06:11:16;;;;;;;13.00;3.78;;;8.50;99.90;;;;;;5028599;28;20053;-44
2022/02/06 06:13:41;;;;;;;9.85;4.65;;;8.50;99.90;;;;;;5029474;28;20079;-44
2022/02/06 06:16:08;;;;;;;9.57;5.30;;;8.60;99.90;;;;;;5029291;28;20128;-44
2022/02/06 06:18:35;;;;;;;9.45;4.32;;;8.60;99.90;;;;;;5028327;28;20376;-43
2022/02/06 06:21:01;;;;;;;10.05;4.93;;;8.50;99.90;;;;;;5029870;28;20099;-44
2022/02/06 06:23:27;;;;;;;11.80;4.47;;;8.60;99.90;;;;;;5028579;28;20053;-43
2022/02/06 06:25:53;;;;;;;8.63;4.32;;;8.60;99.90;;;;;;5028445;28;20477;-43
2022/02/06 06:28:18;;;;;;;12.70;5.70;;;8.50;99.90;;;;;;5028762;28;20104;-43
2022/02/06 06:30:44;;;;;;;7.90;4.60;;;8.50;99.90;;;;;;5028825;28;20095;-43
2022/02/06 06:33:09;;;;;;;6.82;4.38;;;8.60;99.90;;;;;;5028170;28;20060;-43
2022/02/06 06:35:35;;;;;;;9.88;5.22;;;8.50;99.90;;;;;;5029308;28;20026;-43
2022/02/06 06:38:02;;;;;;;10.25;5.93;;;8.50;99.90;;;;;;5029521;28;20390;-43
2022/02/06 06:40:29;;;;;;;9.57;5.60;;;8.50;99.90;;;;;;5023895;28;20815;-43
2022/02/06 06:42:55;;;;;;;14.60;5.72;;;8.50;99.90;;;;;;5029640;28;20049;-43
2022/02/06 06:45:22;;;;;;;10.55;6.07;;;8.50;99.90;;;;;;5028141;28;20688;-43
2022/02/06 06:47:56;;;;;;;8.13;5.15;;;8.50;99.90;;;;;;5028520;28;20021;-43
2022/02/06 06:50:22;;;;;;;10.70;5.57;;;8.50;99.90;;;;;;5028405;28;20044;-44
2022/02/06 06:52:48;;;;;;;10.10;6.47;;;8.50;99.90;;;;;;5028934;28;20025;-43
2022/02/06 06:55:20;;;;;;;10.13;5.80;;;8.50;99.90;;;;;;5027284;28;20028;-44
2022/02/06 06:57:55;;;;;;;8.88;6.20;;;8.50;99.90;;;;;;5029177;28;20036;-43
2022/02/06 07:02:46;;;;;;;7.55;6.00;;;8.50;99.90;;;;;;5028007;28;20065;-42
2022/02/06 07:05:12;;;;;;;8.60;6.07;;;8.50;99.90;;;;;;5028249;28;20067;-43
2022/02/06 07:07:37;;;;;;;8.32;6.35;;;8.50;99.90;;;;;;5027635;28;20546;-44
2022/02/06 07:10:05;;;;;;;9.60;6.53;;;8.50;99.90;;;;;;5028544;28;20029;-44
2022/02/06 07:12:30;;;;;;;7.22;5.93;;;8.50;99.90;;;;;;5027866;28;20025;-43
2022/02/06 07:14:56;;;;;;;7.13;5.88;;;8.50;99.90;;;;;;5027347;28;20068;-43
2022/02/06 07:17:22;;;;;;;6.93;5.70;;;8.50;99.90;;;;;;5028391;28;20052;-42
2022/02/06 07:19:48;;;;;;;7.93;5.50;;;8.50;99.90;;;;;;5028362;28;20061;-44
2022/02/06 07:22:16;;;;;;;9.57;5.70;;;8.50;99.90;;;;;;5027222;28;20267;-44
2022/02/06 07:24:43;;;;;;;7.35;5.57;;;8.40;99.90;;;;;;5027790;28;20062;-42
2022/02/06 07:27:25;;;;;;;9.60;6.60;;;8.50;99.90;;;;;;5028005;28;20494;-43
2022/02/06 07:29:51;;;;;;;8.30;6.00;;;8.40;99.90;;;;;;5027259;28;20384;-43
2022/02/06 07:32:17;;;;;;;8.40;6.07;;;8.40;99.90;;;;;;5027358;28;20021;-43
2022/02/06 07:34:43;;;;;;;8.50;6.25;;;8.50;99.90;;;;;;5028201;28;20156;-44
2022/02/06 07:37:09;;;;;;;8.32;5.85;;;8.50;99.90;;;;;;5027176;28;20108;-43
2022/02/06 07:39:35;;;;;;;8.43;6.07;;;8.50;99.90;;;;;;5027644;28;20021;-43
2022/02/06 07:42:01;;;;;;;10.88;6.28;;;8.50;99.90;;;;;;5027820;28;20088;-43
2022/02/06 07:44:26;;;;;;;8.02;6.13;;;8.50;99.90;;;;;;5026803;28;20029;-44
2022/02/06 07:47:00;;;;;;;9.18;6.10;;;8.50;99.90;;;;;;5027691;28;20611;-43
2022/02/06 07:49:26;;;;;;;8.98;6.07;;;8.50;99.90;;;;;;5009288;28;20028;-44
2022/02/06 07:51:51;;;;;;;8.18;6.10;;;8.50;99.90;;;;;;5026742;28;20026;-44
2022/02/06 07:54:17;;;;;;;8.20;6.07;;;8.50;99.90;;;;;;5027010;28;20025;-43
2022/02/06 07:56:42;;;;;;;8.27;6.25;;;8.50;99.90;;;;;;5026904;28;20036;-43
2022/02/06 07:59:08;;;;;;;7.50;6.13;;;8.50;99.90;;;;;;5026286;28;20029;-43
2022/02/06 08:01:34;;;;;;;6.75;5.65;;;8.50;99.90;;;;;;5027365;28;20124;-43
2022/02/06 08:03:59;;;;;;;9.13;6.65;;;8.50;99.90;;;;;;5026603;28;20541;-43
2022/02/06 08:06:25;;;;;;;6.75;5.72;;;8.60;99.90;;;;;;5026880;28;20037;-43
2022/02/06 08:08:50;;;;;;;8.43;5.55;;;8.60;99.90;;;;;;5027522;28;20018;-43
2022/02/06 08:11:16;;;;;;;8.93;5.88;;;8.60;99.90;;;;;;5026353;28;20025;-43
2022/02/06 08:13:52;;;;;;;7.20;5.45;;;8.60;99.90;;;;;;5027239;28;20033;-43
2022/02/06 08:16:18;;;;;;;8.88;5.50;;;8.60;99.90;;;;;;5026952;28;20026;-44
2022/02/06 08:18:43;;;;;;;10.00;5.70;;;8.70;99.90;;;;;;5026681;28;20029;-43
2022/02/06 08:21:10;;;;;;;7.40;5.88;;;8.70;99.90;;;;;;5026584;28;20253;-43
2022/02/06 08:23:37;;;;;;;7.00;5.38;;;8.60;99.90;;;;;;5025404;28;20049;-43
2022/02/06 08:26:04;;;;;;;8.65;5.72;;;8.70;99.90;;;;;;5026389;28;20030;-43
2022/02/06 08:28:30;;;;;;;7.95;6.05;;;8.70;99.90;;;;;;5026090;28;20580;-43
2022/02/06 08:30:58;;;;;;;9.13;6.03;;;8.70;99.90;;;;;;5026963;28;20115;-44
2022/02/06 08:33:23;;;;;;;9.18;6.18;;;8.70;99.90;;;;;;5025217;28;20025;-44
2022/02/06 08:35:51;;;;;;;8.70;6.53;;;8.70;99.90;;;;;;5026751;28;20037;-43
2022/02/06 08:38:17;;;;;;;8.30;6.32;;;8.70;99.90;;;;;;5026431;28;20120;-44
2022/02/06 08:40:42;;;;;;;7.22;5.88;;;8.70;99.90;;;;;;5026183;28;20029;-44
2022/02/06 08:43:09;;;;;;;8.57;5.70;;;8.70;99.90;;;;;;5026161;28;20038;-44
2022/02/06 08:45:35;;;;;;;7.82;5.65;;;8.70;99.90;;;;;;5026710;28;20034;-43
2022/02/06 08:48:01;;;;;;;8.45;5.35;;;8.70;99.90;;;;;;5025719;28;20357;-44
2022/02/06 08:50:27;;;;;;;7.35;6.13;;;8.80;99.90;;;;;;5022571;28;20742;-44
2022/02/06 08:52:57;;;;;;;7.15;5.40;;;8.80;99.90;;;;;;5025853;28;20024;-43
2022/02/06 08:55:23;;;;;;;7.38;5.30;;;8.70;99.90;;;;;;5024673;28;20045;-44
2022/02/06 08:57:50;;;;;;;6.55;5.03;;;8.70;99.90;;;;;;5025731;28;20052;-44
2022/02/06 09:00:20;;;;;;;6.13;4.75;;;8.70;99.90;;;;;;5024112;28;20826;-44
2022/02/06 09:02:47;;;;;;;5.10;4.55;;;8.70;99.90;;;;;;5025822;28;20053;-44
2022/02/06 09:05:13;;;;;;;4.78;4.28;;;8.70;99.90;;;;;;5024280;28;20037;-44
2022/02/06 09:07:42;;;;;;;5.07;4.57;;;8.70;99.90;;;;;;5024867;28;20586;-43
2022/02/06 09:10:10;;;;;;;5.32;4.40;;;8.70;99.90;;;;;;5024768;28;20036;-44
2022/02/06 09:12:40;;;;;;;4.72;4.30;;;8.70;99.90;;;;;;5024690;28;20485;-43
2022/02/06 09:15:06;;;;;;;4.38;3.60;;;8.70;99.90;;;;;;5024335;28;20029;-43
2022/02/06 09:17:31;;;;;;;5.30;3.83;;;8.60;99.90;;;;;;5025544;28;20013;-43
2022/02/06 09:19:57;;;;;;;4.60;3.97;;;8.70;99.90;;;;;;5025146;28;20032;-44
2022/02/06 09:22:23;;;;;;;3.58;2.90;;;8.70;99.90;;;;;;5024280;28;20033;-43
2022/02/06 09:24:48;;;;;;;3.42;3.13;;;8.70;99.90;;;;;;5025444;28;20088;-43
2022/02/06 09:27:13;;;;;;;4.07;3.45;;;8.70;99.90;;;;;;5024666;28;20038;-43
2022/02/06 09:29:41;;;;;;;5.15;3.30;;;8.60;99.90;;;;;;5024088;28;20778;-44
2022/02/06 09:37:01;;;;;;;7.43;5.75;;;8.70;99.90;;;;;;5025688;28;20112;-43
2022/02/06 09:39:27;;;;;;;7.03;4.47;;;8.70;99.90;;;;;;5024347;28;20097;-43
2022/02/06 09:41:53;;;;;;;4.30;3.67;;;8.70;99.90;;;;;;5025369;28;20025;-44
2022/02/06 09:44:22;;;;;;;4.32;3.60;;;8.70;99.90;;;;;;5024245;28;20032;-44
2022/02/06 09:46:50;;;;;;;5.63;3.45;;;8.70;99.90;;;;;;5024866;28;20505;-44
2022/02/06 09:49:16;;;;;;;3.92;3.58;;;8.70;99.90;;;;;;5024083;28;20030;-43
2022/02/06 09:51:44;;;;;;;4.22;3.58;;;8.70;99.90;;;;;;5024234;28;20112;-43
2022/02/06 09:54:12;;;;;;;4.32;3.67;;;8.70;99.90;;;;;;5024799;28;20508;-44
2022/02/06 09:56:43;;;;;;;3.13;2.83;;;8.70;99.90;;;;;;5023180;28;20532;-43
2022/02/06 09:59:17;;;;;;;4.28;2.92;;;8.70;99.90;;;;;;5025294;28;20428;-45
2022/02/06 10:01:45;;;;;;;4.25;3.10;;;8.70;99.90;;;;;;5024608;28;20029;-43
2022/02/06 10:04:16;;;;;;;3.13;2.83;;;8.80;99.90;;;;;;5023575;28;20053;-44
2022/02/06 10:06:44;;;;;;;5.38;3.58;;;8.80;99.90;;;;;;5024500;28;20128;-44
2022/02/06 10:09:21;;;;;;;4.47;3.10;;;8.80;99.90;;;;;;5004540;28;20557;-43
2022/02/06 10:11:52;;;;;;;3.20;2.90;;;8.70;99.90;;;;;;5019829;28;20212;-43
2022/02/06 10:14:18;;;;;;;4.22;3.30;;;8.80;99.90;;;;;;5024542;28;20030;-45
2022/02/06 10:16:44;;;;;;;5.00;3.10;;;8.80;99.90;;;;;;5025013;28;20675;-43
2022/02/06 10:19:10;;;;;;;4.28;2.53;;;8.80;99.90;;;;;;5024924;28;20481;-45
2022/02/06 10:21:36;;;;;;;5.85;3.35;;;8.80;99.90;;;;;;5024961;28;20021;-43
2022/02/06 10:24:14;;;;;;;3.55;2.33;;;8.80;99.90;;;;;;5029519;28;20416;-44
2022/02/06 10:27:25;;;;;;;3.67;2.50;;;8.80;99.90;;;;;;5028237;28;20120;-44
2022/02/06 10:29:37;;;;;;;2.15;1.90;;;8.80;99.90;;;;;;5014051;28;20040;-43
2022/02/06 10:32:04;;;;;;;3.80;2.30;;;8.80;99.90;;;;;;5028984;28;20354;-44
2022/02/06 10:34:40;;;;;;;2.13;1.90;;;8.80;99.90;;;;;;5028024;28;20480;-44
2022/02/06 10:37:20;;;;;;;4.80;1.90;;;8.80;99.90;;;;;;5028996;28;20045;-45
2022/02/06 10:40:06;;;;;;;3.05;1.90;;;8.80;99.90;;;;;;5028683;28;20026;-45
2022/02/06 10:42:39;;;;;;;3.40;1.90;;;8.80;99.90;;;;;;5028203;28;20056;-43
2022/02/06 10:45:25;;;;;;;4.57;2.17;;;8.80;99.90;;;;;;5028459;28;20037;-43
2022/02/06 10:47:52;;;;;;;5.30;2.30;;;8.80;99.90;;;;;;5027916;28;20497;-44
2022/02/06 10:50:24;;;;;;;3.13;1.90;;;8.80;99.90;;;;;;5027932;28;20055;-44
2022/02/06 10:52:49;;;;;;;4.32;2.10;;;8.80;99.90;;;;;;5027915;28;20021;-44
2022/02/06 10:55:19;;;;;;;2.63;2.00;;;8.80;99.90;;;;;;5027139;28;20522;-43
2022/02/06 10:58:00;;;;;;;2.50;1.90;;;8.90;99.90;;;;;;5027759;28;20028;-44
2022/02/06 11:00:27;;;;;;;1.98;1.80;;;8.80;99.90;;;;;;5026297;28;20822;-43
2022/02/06 11:03:09;;;;;;;2.25;1.80;;;8.90;99.90;;;;;;5027733;28;20072;-44
2022/02/06 11:06:06;;;;;;;1.67;1.55;;;8.80;99.90;;;;;;5027643;28;20116;-44
2022/02/06 11:08:34;;;;;;;2.38;1.65;;;8.90;99.90;;;;;;5026258;28;20022;-44
2022/02/06 11:11:03;;;;;;;4.55;2.42;;;8.90;99.90;;;;;;5027674;28;20030;-43
2022/02/06 11:13:29;;;;;;;2.00;1.52;;;8.90;99.90;;;;;;5027371;28;20036;-44
2022/02/06 11:15:57;;;;;;;3.70;1.50;;;8.90;99.90;;;;;;5026998;28;20075;-44
2022/02/06 11:18:27;;;;;;;3.97;1.80;;;8.90;99.90;;;;;;5027503;28;20040;-44
2022/02/06 11:21:00;;;;;;;2.40;1.83;;;8.90;99.90;;;;;;5026890;28;20040;-43
2022/02/06 11:23:41;;;;;;;4.13;1.98;;;8.90;99.90;;;;;;5026867;28;20018;-44
2022/02/06 11:26:10;;;;;;;4.40;2.00;;;8.90;99.90;;;;;;5027086;28;20135;-43
2022/02/06 11:28:36;;;;;;;3.97;1.85;;;8.90;99.90;;;;;;5027004;28;20017;-44
2022/02/06 11:31:02;;;;;;;3.13;1.90;;;8.90;99.90;;;;;;5027452;28;20103;-43
2022/02/06 11:33:28;;;;;;;3.38;1.77;;;8.90;99.90;;;;;;5026475;28;20693;-44
2022/02/06 11:35:58;;;;;;;5.47;1.55;;;8.90;99.90;;;;;;5027533;28;20048;-43
2022/02/06 11:44:37;;;;;;;1.70;1.52;;;8.90;99.90;;;;;;5026980;28;20032;-43
2022/02/06 11:47:18;;;;;;;3.80;1.98;;;8.90;99.90;;;;;;5027572;28;20041;-43
2022/02/06 11:49:48;;;;;;;4.10;1.52;;;9.00;99.90;;;;;;5026924;28;20065;-45
2022/02/06 11:52:14;;;;;;;1.63;1.00;;;9.00;99.90;;;;;;5007904;28;20049;-44
2022/02/06 11:54:48;;;;;;;2.17;0.80;;;8.80;99.90;;;;;;5019503;28;20032;-44
2022/02/06 11:57:26;;;;;;;2.30;0.73;;;8.70;99.90;;;;;;5026765;28;20034;-44
2022/02/06 12:00:15;;;;;;;1.25;0.60;;;8.40;99.90;;;;;;5027185;28;20112;-43
2022/02/06 12:02:46;;;;;;;4.80;0.90;;;8.20;99.90;;;;;;5027953;28;20127;-43
2022/02/06 12:05:17;;;;;;;1.75;0.50;;;8.00;99.90;;;;;;5026360;28;20042;-44
2022/02/06 12:07:52;;;;;;;0.68;0.32;;;7.90;99.90;;;;;;5027579;28;20101;-42
2022/02/06 12:10:22;;;;;;;0.70;0.40;;;7.60;99.90;;;;;;5026095;28;20072;-45
2022/02/06 12:12:50;;;;;;;2.67;1.58;;;7.40;99.90;;;;;;5027874;28;20040;-44
2022/02/06 12:15:30;;;;;;;1.55;0.73;;;7.20;99.90;;;;;;5026165;28;20766;-44
2022/02/06 12:18:05;;;;;;;1.23;0.57;;;7.10;99.90;;;;;;5026716;28;20057;-43
2022/02/06 12:20:48;;;;;;;1.25;0.60;;;7.00;99.90;;;;;;5026746;28;20072;-43
2022/02/06 12:23:35;;;;;;;1.40;0.63;;;7.00;99.90;;;;;;5026355;28;20037;-44
2022/02/06 12:26:00;;;;;;;2.05;0.55;;;7.00;99.90;;;;;;5026004;28;20069;-43
2022/02/06 12:28:30;;;;;;;0.65;0.40;;;6.90;99.90;;;;;;5026958;28;20053;-44
2022/02/06 12:31:15;;;;;;;1.35;0.50;;;7.00;99.90;;;;;;5026899;28;20099;-44
2022/02/06 12:33:45;;;;;;;1.80;0.45;;;6.90;99.90;;;;;;5026388;28;20083;-43
2022/02/06 12:39:32;;;;;;;1.08;0.43;;;7.00;99.90;;;;;;5006455;28;20044;-43
2022/02/06 12:41:59;;;;;;;1.55;0.60;;;7.00;99.90;;;;;;5023744;28;20029;-42
2022/02/06 12:44:26;;;;;;;2.05;0.63;;;7.10;99.90;;;;;;5026563;28;20044;-44
2022/02/06 12:46:55;;;;;;;3.40;0.77;;;7.10;99.90;;;;;;5025961;28;20041;-43
2022/02/06 12:49:30;;;;;;;2.03;0.60;;;7.10;99.90;;;;;;5025587;28;20388;-43
2022/02/06 12:51:57;;;;;;;0.80;0.40;;;7.20;99.90;;;;;;5026607;28;20025;-43
2022/02/06 12:54:24;;;;;;;4.43;0.65;;;7.20;99.90;;;;;;5025789;28;20485;-43
2022/02/06 12:56:53;;;;;;;3.47;0.70;;;7.20;99.90;;;;;;5026212;28;20491;-43
2022/02/06 12:59:22;;;;;;;1.85;0.70;;;7.20;99.90;;;;;;5025061;28;20033;-44
2022/02/06 13:01:49;;;;;;;3.30;0.73;;;7.20;99.90;;;;;;5027032;28;20156;-43
2022/02/06 13:04:22;;;;;;;2.35;0.90;;;7.20;99.90;;;;;;5025814;28;20053;-44
2022/02/06 13:06:49;;;;;;;7.10;1.85;;;7.30;99.90;;;;;;5025670;28;20095;-43
2022/02/06 13:09:25;;;;;;;5.95;1.92;;;7.30;99.90;;;;;;5025620;28;20026;-43
2022/02/06 13:12:08;;;;;;;3.72;0.95;;;7.30;99.90;;;;;;5026440;28;20025;-44
2022/02/06 13:15:20;;;;;;;2.92;1.05;;;7.40;99.90;;;;;;5025296;28;20032;-43
2022/02/06 13:22:55;;;;;;;5.50;1.08;;;7.40;99.90;;;;;;5025701;28;20029;-44
2022/02/06 13:25:58;;;;;;;3.58;0.88;;;7.50;99.90;;;;;;5025775;28;20118;-45
2022/02/06 13:38:52;;;;;;;4.53;1.27;;;7.70;99.90;;;;;;5025961;28;20088;-44
2022/02/06 13:41:23;;;;;;;6.30;1.40;;;7.70;99.90;;;;;;5005251;28;20026;-44
2022/02/06 13:43:51;;;;;;;6.47;1.60;;;7.70;99.90;;;;;;5020411;28;20424;-44
2022/02/06 13:46:22;;;;;;;5.68;1.40;;;7.70;99.90;;;;;;5023763;28;20099;-44
2022/02/06 13:48:49;;;;;;;5.82;1.15;;;7.80;99.90;;;;;;5024926;28;20662;-45
2022/02/06 13:51:15;;;;;;;7.65;1.50;;;7.80;99.90;;;;;;5025447;28;20129;-44
2022/02/06 13:53:58;;;;;;;5.47;1.00;;;7.90;99.90;;;;;;5025483;28;20022;-44
2022/02/06 13:56:24;;;;;;;;;;;8.00;99.90;;;;;;5025014;28;20041;-44
2022/02/06 13:59:03;;;;;;;3.33;0.93;;;8.00;99.90;;;;;;5029500;28;19909;-45
2022/02/06 14:01:40;;;;;;;6.03;0.93;;;8.00;99.90;;;;;;5028813;28;20056;-42
2022/02/06 14:04:17;;;;;;;3.95;1.20;;;8.00;99.90;;;;;;5028118;28;20493;-43
2022/02/06 14:06:47;;;;;;;5.35;1.10;;;8.00;99.90;;;;;;5029684;28;20555;-43
2022/02/06 14:09:26;;;;;;;5.68;1.10;;;8.10;99.90;;;;;;5028760;28;20037;-43
2022/02/06 14:12:15;;;;;;;11.68;1.60;;;8.10;99.90;;;;;;5029395;28;20053;-44
2022/02/06 14:14:56;;;;;;;6.07;1.30;;;8.10;99.90;;;;;;5029547;28;20060;-44
2022/02/06 14:17:25;;;;;;;7.07;1.48;;;8.10;99.90;;;;;;5028031;28;20211;-44
2022/02/06 14:19:53;;;;;;;5.93;1.52;;;8.10;99.90;;;;;;5028538;28;20393;-44
2022/02/06 14:22:35;;;;;;;6.57;1.20;;;8.20;99.90;;;;;;5028535;28;20025;-43
2022/02/06 14:25:03;;;;;;;7.47;1.33;;;8.20;99.90;;;;;;5028368;28;20095;-43
2022/02/06 14:27:35;;;;;;;5.35;1.48;;;8.30;99.90;;;;;;5029237;28;20025;-43
2022/02/06 14:30:14;;;;;;;6.97;1.27;;;8.30;99.90;;;;;;5029009;28;20468;-44
2022/02/06 14:33:03;;;;;;;8.55;1.45;;;8.30;99.90;;;;;;5028859;28;20109;-44
2022/02/06 14:35:46;;;;;;;5.20;1.30;;;8.40;99.90;;;;;;5027979;28;20484;-44
2022/02/06 14:38:21;;;;;;;;;;;8.40;99.90;;;;;;5028848;28;20041;-43
2022/02/06 14:41:05;;;;;;;6.38;1.33;;;8.40;99.90;;;;;;5028885;28;19909;-45
2022/02/06 14:43:40;;;;;;;5.78;1.60;;;8.40;99.90;;;;;;5008685;28;20022;-43
2022/02/06 14:46:10;;;;;;;6.18;1.63;;;8.40;99.90;;;;;;5025050;28;20033;-44
2022/02/06 14:48:36;;;;;;;8.23;1.40;;;8.50;99.90;;;;;;5028667;28;20032;-44
2022/02/06 14:51:01;;;;;;;4.20;1.38;;;8.50;99.90;;;;;;5028097;28;20747;-44
2022/02/06 14:53:27;;;;;;;5.57;1.00;;;8.50;99.90;;;;;;5027481;28;20021;-44
2022/02/06 14:55:56;;;;;;;3.88;0.90;;;8.60;99.90;;;;;;5028905;28;20413;-44
2022/02/06 14:58:23;;;;;;;4.45;1.02;;;8.60;99.90;;;;;;5028054;28;20026;-43
2022/02/06 15:00:49;;;;;;;4.20;1.30;;;8.60;99.90;;;;;;5028275;28;20354;-43
2022/02/06 15:03:17;;;;;;;4.70;0.90;;;8.60;99.90;;;;;;5028300;28;20056;-43
2022/02/06 15:05:43;;;;;;;6.47;1.10;;;8.60;99.90;;;;;;5028369;28;20030;-43
2022/02/06 15:08:09;;;;;;;7.15;1.10;;;8.60;99.90;;;;;;5027815;28;20033;-43
2022/02/06 15:10:35;;;;;;;4.28;1.00;;;8.60;99.90;;;;;;5027683;28;20029;-44
2022/02/06 15:13:03;;;;;;;5.38;0.98;;;8.70;99.90;;;;;;5016730;28;20033;-44
2022/02/06 15:15:37;;;;;;;7.57;1.40;;;8.70;99.90;;;;;;5027519;28;20378;-44
2022/02/06 15:18:21;;;;;;;4.65;1.00;;;8.70;99.90;;;;;;5028204;28;20025;-43
2022/02/06 15:20:53;;;;;;;4.35;1.10;;;8.70;99.90;;;;;;5027776;28;20547;-44
2022/02/06 15:23:19;;;;;;;5.13;0.98;;;8.70;99.90;;;;;;5027834;28;20025;-44
2022/02/06 15:25:45;;;;;;;8.23;1.60;;;8.70;99.90;;;;;;5028070;28;20032;-44
2022/02/06 15:28:11;;;;;;;4.70;1.35;;;8.70;99.90;;;;;;5027656;28;20033;-44
2022/02/06 15:30:37;;;;;;;3.60;1.00;;;8.60;99.90;;;;;;5027926;28;20032;-44
2022/02/06 15:33:04;;;;;;;4.20;0.98;;;8.60;99.90;;;;;;5027845;28;20112;-44
2022/02/06 15:35:30;;;;;;;3.05;1.08;;;8.70;99.90;;;;;;5027074;28;20061;-44
2022/02/06 15:37:57;;;;;;;4.60;1.27;;;8.60;99.90;;;;;;5027664;28;20037;-43